Tuesday, January 16, 2018, 5:05 PM GMT
Back to Local

CXMY, Malay Falls , N. S.

Location: , , Canada Lat: 44.983
Local Time: 5:05 PM GMT (17:05 GMT) Lon: -62.483
Time Zone: GMT Elev: 131 ft

Show me the last for .
Show Coded

Time T Td Feel RH Dir Speed Gust Alt SLP Vis Weather Sky Remarks
2018-01-16 16:00 28 26 - 92 - - - - - 0 None
2018-01-16 15:00 28 28 - 100 - - - - - 0 None
2018-01-16 14:00 27 25 - 94 - - - - - 0 None
2018-01-16 13:00 28 25 - 89 - - - - - 0 None
2018-01-16 12:00 25 25 - 99 - - - - - 0 None
2018-01-16 11:00 25 25 - 98 - - - - - 0 None
2018-01-16 10:00 25 25 - 99 - - - - - 0 None
2018-01-16 09:00 24 24 - 99 - - - - - 0 1-hr Precip Total: 0.04"
2018-01-16 08:00 25 24 - 99 - - - - - 0 1-hr Precip Total: 0.05"
2018-01-16 07:00 24 23 - 97 - - - - - 0 1-hr Precip Total: 0.06"
2018-01-16 06:00 23 22 - 97 - - - - - 0 1-hr Precip Total: 0.07"
2018-01-16 05:00 22 22 - 97 - - - - - 0 1-hr Precip Total: 0.06"
2018-01-16 04:00 22 21 - 95 - - - - - 0 1-hr Precip Total: 0.05"
2018-01-16 03:00 21 20 - 96 - - - - - 0 1-hr Precip Total: 0.07"
2018-01-16 02:00 21 20 - 94 - - - - - 0 1-hr Precip Total: 0.07"
2018-01-16 01:00 21 20 - 96 - - - - - 0 1-hr Precip Total: 0.03"
2018-01-16 00:00 22 19 - 88 - - - - - 0 None
2018-01-15 23:00 23 17 - 78 - - - - - 0 None
2018-01-15 22:00 22 17 - 77 - - - - - 0 None
2018-01-15 21:00 22 16 - 76 - - - - - 0 None
2018-01-15 20:00 22 15 - 73 - - - - - 0 None
2018-01-15 19:00 23 15 - 68 - - - - - 0 None
2018-01-15 18:00 24 15 - 68 - - - - - 0 None

Support USWX by starting your Amazon purchase here.